createdAt,value
2023-03-01T00:01:31.511Z,27.00
2023-03-01T00:04:03.703Z,27.65
2023-03-01T00:06:36.445Z,26.35
2023-03-01T00:09:08.998Z,25.00
2023-03-01T00:11:42.042Z,25.30
2023-03-01T00:14:16.261Z,29.13
2023-03-01T00:16:49.074Z,23.80
2023-03-01T00:19:22.991Z,25.30
2023-03-01T00:21:55.764Z,29.65
2023-03-01T00:24:28.275Z,28.55
2023-03-01T00:27:00.242Z,26.90
2023-03-01T00:29:32.984Z,27.75
2023-03-01T00:32:05.626Z,27.50
2023-03-01T00:34:40.745Z,25.13
2023-03-01T00:37:15.102Z,27.13
2023-03-01T00:42:38.014Z,29.63
2023-03-01T00:45:10.926Z,29.60
2023-03-01T00:47:42.925Z,23.50
2023-03-01T00:53:31.309Z,25.47
2023-03-01T00:56:05.715Z,30.63
2023-03-01T00:58:37.768Z,25.77
2023-03-01T01:01:19.341Z,27.92
2023-03-01T01:04:11.691Z,25.45
2023-03-01T01:07:05.423Z,28.23
2023-03-01T01:09:38.075Z,28.42
2023-03-01T01:12:10.855Z,28.83
2023-03-01T01:14:42.832Z,28.02
2023-03-01T01:17:15.572Z,30.58
2023-03-01T01:19:47.877Z,28.43
2023-03-01T01:22:19.793Z,26.88
2023-03-01T01:24:52.503Z,24.35
2023-03-01T01:27:24.406Z,26.75
2023-03-01T01:29:57.177Z,22.95
2023-03-01T01:32:29.517Z,24.07
2023-03-01T01:35:02.284Z,26.40
2023-03-01T01:37:35.979Z,22.58
2023-03-01T01:40:10.908Z,22.95
2023-03-01T01:42:42.790Z,24.45
2023-03-01T01:45:34.945Z,26.53
2023-03-01T01:48:14.811Z,24.45
2023-03-01T01:51:01.260Z,26.38
2023-03-01T01:53:33.643Z,25.63
2023-03-01T01:56:10.186Z,25.52
2023-03-01T01:58:45.048Z,23.10
2023-03-01T02:01:20.630Z,25.70
2023-03-01T02:03:52.978Z,28.42
2023-03-01T02:06:39.615Z,27.35
2023-03-01T02:09:19.864Z,27.77
2023-03-01T02:11:53.530Z,26.60
2023-03-01T02:14:25.468Z,26.70
2023-03-01T02:16:58.370Z,27.98
2023-03-01T02:20:02.210Z,28.88
2023-03-01T02:22:38.382Z,27.08
2023-03-01T02:25:19.557Z,31.07
2023-03-01T02:28:19.462Z,30.08
2023-03-01T02:31:10.811Z,29.67
2023-03-01T02:33:44.019Z,27.17
2023-03-01T02:36:26.213Z,29.58
2023-03-01T02:39:00.437Z,27.63
2023-03-01T02:41:39.998Z,29.75
2023-03-01T02:44:12.051Z,28.02
2023-03-01T02:46:49.668Z,27.00
2023-03-01T02:49:40.445Z,30.35
2023-03-01T02:52:42.281Z,35.30
2023-03-01T02:55:17.841Z,27.48
2023-03-01T02:57:53.735Z,28.45
2023-03-01T03:00:34.550Z,30.13
2023-03-01T03:03:07.404Z,25.95
2023-03-01T03:05:40.148Z,28.33
2023-03-01T03:08:13.015Z,27.58
2023-03-01T03:10:45.676Z,27.85
2023-03-01T03:13:21.079Z,28.45
2023-03-01T03:15:53.093Z,30.50
2023-03-01T03:18:29.190Z,28.27
2023-03-01T03:21:01.488Z,28.80
2023-03-01T03:23:33.439Z,26.40
2023-03-01T03:26:07.721Z,31.02
2023-03-01T03:28:40.900Z,27.83
2023-03-01T03:31:13.698Z,28.83
2023-03-01T03:33:45.611Z,25.33
2023-03-01T03:36:39.698Z,31.40
2023-03-01T03:39:12.072Z,28.70
2023-03-01T03:41:45.304Z,30.40
2023-03-01T03:44:18.508Z,31.57
2023-03-01T03:46:51.321Z,29.27
2023-03-01T03:49:23.265Z,30.00
2023-03-01T03:51:56.167Z,28.73
2023-03-01T03:54:28.433Z,29.33
2023-03-01T03:57:03.876Z,25.97
2023-03-01T03:59:56.880Z,26.60
2023-03-01T04:02:29.649Z,31.58
2023-03-01T04:05:02.820Z,32.03
2023-03-01T04:07:37.459Z,29.95
2023-03-01T04:10:18.816Z,30.50
2023-03-01T04:12:51.546Z,29.05
2023-03-01T04:15:25.077Z,27.83
2023-03-01T04:17:57.828Z,27.80
2023-03-01T04:20:34.986Z,31.77
2023-03-01T04:23:21.866Z,27.77
2023-03-01T04:25:59.152Z,34.72
2023-03-01T04:28:39.006Z,29.85
2023-03-01T04:31:17.780Z,28.15
2023-03-01T04:33:54.260Z,28.70
2023-03-01T04:36:28.836Z,27.77
2023-03-01T04:39:23.516Z,28.45
2023-03-01T04:41:55.493Z,31.25
2023-03-01T04:44:28.880Z,29.20
2023-03-01T04:47:01.537Z,32.70
2023-03-01T04:49:33.456Z,30.73
2023-03-01T04:52:07.064Z,26.75
2023-03-01T04:54:38.953Z,30.60
2023-03-01T04:57:11.675Z,31.17
2023-03-01T04:59:44.950Z,32.55
2023-03-01T05:02:17.236Z,35.07
2023-03-01T05:04:49.533Z,34.67
2023-03-01T05:07:24.864Z,29.60
2023-03-01T05:09:57.216Z,35.67
2023-03-01T05:12:30.887Z,22.35
2023-03-01T05:15:07.873Z,30.70
2023-03-01T05:17:40.605Z,31.17
2023-03-01T05:20:13.284Z,29.83
2023-03-01T05:22:45.627Z,34.33
2023-03-01T05:25:17.897Z,32.78
2023-03-01T05:27:51.018Z,29.30
2023-03-01T05:30:23.931Z,32.83
2023-03-01T05:32:58.399Z,28.77
2023-03-01T05:35:30.932Z,32.20
2023-03-01T05:38:02.862Z,31.35
2023-03-01T05:40:38.156Z,27.97
2023-03-01T05:43:10.557Z,34.05
2023-03-01T05:45:44.386Z,31.10
2023-03-01T05:48:17.171Z,34.88
2023-03-01T05:50:49.503Z,32.08
2023-03-01T05:53:22.143Z,32.30
2023-03-01T05:55:55.372Z,36.67
2023-03-01T05:58:28.348Z,32.53
2023-03-01T06:01:00.723Z,34.40
2023-03-01T06:03:35.659Z,32.13
2023-03-01T06:06:08.031Z,28.20
2023-03-01T06:08:40.334Z,31.95
2023-03-01T06:11:13.133Z,35.08
2023-03-01T06:13:46.866Z,32.88
2023-03-01T06:16:18.745Z,37.35
2023-03-01T06:18:52.729Z,36.43
2023-03-01T06:21:24.746Z,30.92
2023-03-01T06:26:50.806Z,30.20
2023-03-01T06:29:24.256Z,31.63
2023-03-01T06:34:50.634Z,37.05
2023-03-01T06:37:23.633Z,31.08
2023-03-01T06:39:56.360Z,31.75
2023-03-01T06:42:28.249Z,33.92
2023-03-01T06:45:01.317Z,35.67
2023-03-01T06:47:34.755Z,35.65
2023-03-01T06:50:07.780Z,31.05
2023-03-01T06:52:40.062Z,33.47
2023-03-01T06:55:14.906Z,35.53
2023-03-01T06:57:47.152Z,37.90
2023-03-01T07:00:22.003Z,36.30
2023-03-01T07:03:01.445Z,33.33
2023-03-01T07:05:35.203Z,33.50
2023-03-01T07:08:07.379Z,35.60
2023-03-01T07:10:40.782Z,36.77
2023-03-01T07:13:13.076Z,33.97
2023-03-01T07:15:48.170Z,30.92
2023-03-01T07:18:21.641Z,32.42
2023-03-01T07:23:49.873Z,33.00
2023-03-01T07:26:23.650Z,33.60
2023-03-01T07:29:00.901Z,34.55
2023-03-01T07:31:32.874Z,31.30
2023-03-01T07:34:27.891Z,34.05
2023-03-01T07:36:59.965Z,36.80
2023-03-01T07:39:33.852Z,31.38
2023-03-01T07:42:05.741Z,31.95
2023-03-01T07:44:39.629Z,37.00
2023-03-01T07:47:11.772Z,38.65
2023-03-01T07:49:44.974Z,35.47
2023-03-01T07:52:19.953Z,36.63
2023-03-01T07:54:53.290Z,37.47
2023-03-01T07:57:25.768Z,32.58
2023-03-01T07:59:59.319Z,34.38
2023-03-01T08:02:31.709Z,31.40
2023-03-01T08:05:07.101Z,36.88
2023-03-01T08:07:58.061Z,33.80
2023-03-01T08:10:30.142Z,34.45
2023-03-01T08:13:02.868Z,31.30
2023-03-01T08:15:34.786Z,32.37
2023-03-01T08:18:09.864Z,35.28
2023-03-01T08:20:42.601Z,34.10
2023-03-01T08:23:14.536Z,36.25
2023-03-01T08:25:50.443Z,35.40
2023-03-01T08:28:22.679Z,32.77
2023-03-01T08:31:36.839Z,33.63
2023-03-01T08:34:13.441Z,33.55
2023-03-01T08:36:53.404Z,32.17
2023-03-01T08:39:47.825Z,33.53
2023-03-01T08:42:45.109Z,35.60
2023-03-01T08:45:20.361Z,31.35
2023-03-01T08:47:54.408Z,36.92
2023-03-01T08:50:26.778Z,34.47
2023-03-01T08:53:01.726Z,34.10
2023-03-01T08:55:33.816Z,32.67
2023-03-01T08:58:05.811Z,34.88
2023-03-01T09:03:31.973Z,33.08
2023-03-01T09:06:07.931Z,33.63
2023-03-01T09:14:46.953Z,33.03
2023-03-01T09:20:13.972Z,37.83
2023-03-01T09:22:48.537Z,38.63
2023-03-01T09:25:20.374Z,30.08
2023-03-01T09:27:55.782Z,34.90
2023-03-01T09:30:28.635Z,30.17
2023-03-01T09:33:00.752Z,36.65
2023-03-01T09:35:34.986Z,40.40
2023-03-01T09:38:06.884Z,36.40
2023-03-01T09:40:47.935Z,32.63
2023-03-01T09:43:48.275Z,32.08
2023-03-01T09:46:24.254Z,35.28
2023-03-01T09:49:31.368Z,35.80
2023-03-01T09:52:25.657Z,39.15
2023-03-01T09:55:00.619Z,31.73
2023-03-01T09:57:50.662Z,33.22
2023-03-01T10:03:45.046Z,34.70
2023-03-01T10:06:34.451Z,33.25
2023-03-01T10:09:15.031Z,42.25
2023-03-01T10:11:54.522Z,37.08
2023-03-01T10:15:11.660Z,30.65
2023-03-01T10:18:23.676Z,31.53
2023-03-01T10:21:03.460Z,31.42
2023-03-01T10:23:36.878Z,30.27
2023-03-01T10:29:47.386Z,29.70
2023-03-01T10:32:20.480Z,32.23
2023-03-01T10:35:23.622Z,34.22
2023-03-01T10:38:18.336Z,36.63
2023-03-01T10:40:58.497Z,31.83
2023-03-01T10:43:56.824Z,31.45
2023-03-01T10:46:38.378Z,33.70
2023-03-01T10:49:24.288Z,33.30
2023-03-01T10:51:56.805Z,31.83
2023-03-01T10:54:34.292Z,35.17
2023-03-01T10:57:06.860Z,35.47
2023-03-01T10:59:40.491Z,33.83
2023-03-01T11:02:31.421Z,28.58
2023-03-01T11:05:20.714Z,30.70
2023-03-01T11:07:59.601Z,29.20
2023-03-01T11:10:35.726Z,33.03
2023-03-01T11:13:20.674Z,33.90
2023-03-01T11:16:09.059Z,32.85
2023-03-01T11:18:48.193Z,30.23
2023-03-01T11:21:20.469Z,31.17
2023-03-01T11:23:53.693Z,34.05
2023-03-01T11:26:26.022Z,28.60
2023-03-01T11:29:05.661Z,31.48
2023-03-01T11:31:40.475Z,32.17
2023-03-01T11:34:29.641Z,31.95
2023-03-01T11:37:08.651Z,22.23
2023-03-01T11:39:56.384Z,31.40
2023-03-01T11:43:07.392Z,28.90
2023-03-01T11:46:27.577Z,31.05
2023-03-01T11:49:34.340Z,31.48
2023-03-01T11:53:20.345Z,32.47
2023-03-01T11:56:41.141Z,31.07
2023-03-01T11:59:39.096Z,31.48
2023-03-01T12:02:44.435Z,31.73
2023-03-01T12:05:41.642Z,27.48
2023-03-01T12:09:04.391Z,30.98
2023-03-01T12:12:17.869Z,30.13
2023-03-01T12:15:30.917Z,31.25
2023-03-01T12:18:28.435Z,28.17
2023-03-01T12:21:35.970Z,28.25
2023-03-01T12:24:46.350Z,30.70
2023-03-01T12:27:57.059Z,25.90
2023-03-01T12:31:29.570Z,28.55
2023-03-01T12:34:42.000Z,24.52
2023-03-01T12:37:38.708Z,25.38
2023-03-01T12:41:03.243Z,24.60
2023-03-01T12:44:24.911Z,21.67
2023-03-01T12:47:32.292Z,28.95
2023-03-01T12:50:19.629Z,24.88
2023-03-01T12:52:56.872Z,25.88
2023-03-01T12:55:37.636Z,25.15
2023-03-01T12:58:34.130Z,22.52
2023-03-01T13:01:42.582Z,25.85
2023-03-01T13:04:38.137Z,22.90
2023-03-01T13:07:49.691Z,25.02
2023-03-01T13:10:47.113Z,23.48
2023-03-01T13:13:26.430Z,22.40
2023-03-01T13:16:22.644Z,25.88
2023-03-01T13:19:22.082Z,27.50
2023-03-01T13:21:56.430Z,24.83
2023-03-01T13:24:43.781Z,24.23
2023-03-01T13:27:26.044Z,25.02
2023-03-01T13:30:08.319Z,22.95
2023-03-01T13:32:44.532Z,23.75
2023-03-01T13:35:20.503Z,23.23
2023-03-01T13:37:52.461Z,23.35
2023-03-01T13:40:25.087Z,24.85
2023-03-01T13:43:05.640Z,24.58
2023-03-01T13:45:44.474Z,24.05
2023-03-01T13:48:24.961Z,24.85
2023-03-01T13:51:05.018Z,25.65
2023-03-01T13:53:48.749Z,25.07
2023-03-01T13:56:27.551Z,25.88
2023-03-01T13:59:05.280Z,23.60
2023-03-01T14:01:38.560Z,24.08
2023-03-01T14:04:33.294Z,25.05
2023-03-01T14:07:22.493Z,25.33
2023-03-01T14:10:02.338Z,26.10
2023-03-01T14:13:01.256Z,23.83
2023-03-01T14:15:42.681Z,23.33
2023-03-01T14:18:37.366Z,23.52
2023-03-01T14:21:10.480Z,22.80
2023-03-01T14:23:43.174Z,26.63
2023-03-01T14:26:23.390Z,22.90
2023-03-01T14:28:56.448Z,29.70
2023-03-01T14:31:52.559Z,23.92
2023-03-01T14:34:26.057Z,22.77
2023-03-01T14:37:10.522Z,23.02
2023-03-01T14:39:42.403Z,32.88
2023-03-01T14:42:16.283Z,22.08
2023-03-01T14:44:52.148Z,24.73
2023-03-01T14:47:32.021Z,25.65
2023-03-01T14:50:23.878Z,25.40
2023-03-01T14:52:59.963Z,24.85
2023-03-01T14:55:42.419Z,23.55
2023-03-01T14:58:16.880Z,23.02
2023-03-01T15:00:53.977Z,24.75
2023-03-01T15:03:39.296Z,28.10
2023-03-01T15:06:16.428Z,24.80
2023-03-01T15:08:52.794Z,26.48
2023-03-01T15:11:33.256Z,24.20
2023-03-01T15:14:47.350Z,23.80
2023-03-01T15:17:37.941Z,22.17
2023-03-01T15:20:26.611Z,26.25
2023-03-01T15:23:01.032Z,23.60
2023-03-01T15:25:34.480Z,25.30
2023-03-01T15:28:14.194Z,28.40
2023-03-01T15:30:47.035Z,29.15
2023-03-01T15:33:21.360Z,31.45
2023-03-01T15:35:55.382Z,31.52
2023-03-01T15:38:27.615Z,31.40
2023-03-01T15:41:21.676Z,33.20
2023-03-01T15:43:57.867Z,28.98
2023-03-01T15:46:35.804Z,38.05
2023-03-01T15:49:33.063Z,33.67
2023-03-01T15:52:30.224Z,36.20
2023-03-01T15:55:29.530Z,33.60
2023-03-01T15:58:17.094Z,35.25
2023-03-01T16:01:04.201Z,35.90
2023-03-01T16:03:36.906Z,36.83
2023-03-01T16:06:11.914Z,37.88
2023-03-01T16:08:44.586Z,37.27
2023-03-01T16:11:21.742Z,35.47
2023-03-01T16:13:53.733Z,39.70
2023-03-01T16:16:26.445Z,42.80
2023-03-01T16:18:58.411Z,34.95
2023-03-01T16:21:31.318Z,35.70
2023-03-01T16:24:03.698Z,36.33
2023-03-01T16:26:38.585Z,35.65
2023-03-01T16:29:10.622Z,38.40
2023-03-01T16:31:43.698Z,39.78
2023-03-01T16:34:22.794Z,35.30
2023-03-01T16:36:55.425Z,34.83
2023-03-01T16:39:27.539Z,35.63
2023-03-01T16:42:02.546Z,36.47
2023-03-01T16:44:34.936Z,40.50
2023-03-01T16:47:07.163Z,41.27
2023-03-01T16:49:39.097Z,36.08
2023-03-01T16:52:12.632Z,35.38
2023-03-01T16:54:44.591Z,38.88
2023-03-01T16:57:17.601Z,36.63
2023-03-01T16:59:54.480Z,37.47
2023-03-01T17:02:27.578Z,38.13
2023-03-01T17:04:59.560Z,35.55
2023-03-01T17:07:35.510Z,40.78
2023-03-01T17:10:11.541Z,38.88
2023-03-01T17:12:44.314Z,40.33
2023-03-01T17:15:16.288Z,39.55
2023-03-01T17:17:52.208Z,38.67
2023-03-01T17:20:24.156Z,38.17
2023-03-01T17:22:56.771Z,40.28
2023-03-01T17:25:29.244Z,38.07
2023-03-01T17:28:01.943Z,35.08
2023-03-01T17:30:33.955Z,43.08
2023-03-01T17:33:06.554Z,42.53
2023-03-01T17:35:39.132Z,41.67
2023-03-01T17:38:12.120Z,39.37
2023-03-01T17:40:48.354Z,37.63
2023-03-01T17:43:21.006Z,41.97
2023-03-01T17:45:54.596Z,38.97
2023-03-01T17:48:27.484Z,36.20
2023-03-01T17:50:59.757Z,40.40
2023-03-01T17:53:32.073Z,36.00
2023-03-01T17:56:07.323Z,38.00
2023-03-01T17:58:40.043Z,39.80
2023-03-01T18:01:19.267Z,37.58
2023-03-01T18:03:53.001Z,38.53
2023-03-01T18:06:28.437Z,37.70
2023-03-01T18:09:00.688Z,37.50
2023-03-01T18:11:35.818Z,38.80
2023-03-01T18:14:08.441Z,34.17
2023-03-01T18:16:41.077Z,37.80
2023-03-01T18:19:13.175Z,40.92
2023-03-01T18:21:45.700Z,40.40
2023-03-01T18:24:17.971Z,39.47
2023-03-01T18:26:50.639Z,36.38
2023-03-01T18:29:23.002Z,35.30
2023-03-01T18:31:56.134Z,38.50
2023-03-01T18:34:28.771Z,41.90
2023-03-01T18:37:10.220Z,40.28
2023-03-01T18:39:42.365Z,38.75
2023-03-01T18:42:16.652Z,45.77
2023-03-01T18:44:49.119Z,35.95
2023-03-01T18:47:21.399Z,34.50
2023-03-01T18:49:53.789Z,37.00
2023-03-01T18:52:26.391Z,40.28
2023-03-01T18:54:59.084Z,42.13
2023-03-01T18:57:30.936Z,43.00
2023-03-01T19:00:05.129Z,40.17
2023-03-01T19:02:37.087Z,43.70
2023-03-01T19:05:10.061Z,39.35
2023-03-01T19:07:41.926Z,36.83
2023-03-01T19:10:14.533Z,38.70
2023-03-01T19:12:46.834Z,34.33
2023-03-01T19:15:19.918Z,41.08
2023-03-01T19:17:53.615Z,40.30
2023-03-01T19:20:27.118Z,39.73
2023-03-01T19:22:59.013Z,46.85
2023-03-01T19:25:31.985Z,42.92
2023-03-01T19:28:04.346Z,44.17
2023-03-01T19:30:38.644Z,40.75
2023-03-01T19:33:11.570Z,43.87
2023-03-01T19:35:44.346Z,41.42
2023-03-01T19:38:16.263Z,42.60
2023-03-01T19:40:48.865Z,42.60
2023-03-01T19:43:21.455Z,45.80
2023-03-01T19:45:55.589Z,49.80
2023-03-01T19:48:30.003Z,47.85
2023-03-01T19:51:03.215Z,47.03
2023-03-01T19:53:35.424Z,46.78
2023-03-01T19:56:09.259Z,43.20
2023-03-01T19:58:41.590Z,63.73
2023-03-01T20:01:20.209Z,43.78
2023-03-01T20:03:52.216Z,55.60
2023-03-01T20:06:25.930Z,44.78
2023-03-01T20:08:58.736Z,44.75
2023-03-01T20:11:33.094Z,46.40
2023-03-01T20:14:06.745Z,44.97
2023-03-01T20:16:42.338Z,45.35
2023-03-01T20:19:14.649Z,45.28
2023-03-01T20:21:46.530Z,44.30
2023-03-01T20:24:19.532Z,44.73
2023-03-01T20:26:51.411Z,42.50
2023-03-01T20:29:24.023Z,45.50
2023-03-01T20:31:56.949Z,41.38
2023-03-01T20:34:30.099Z,48.33
2023-03-01T20:37:03.855Z,42.87
2023-03-01T20:39:36.877Z,42.92
2023-03-01T20:42:08.824Z,42.50
2023-03-01T20:44:44.332Z,40.67
2023-03-01T20:47:16.441Z,41.53
2023-03-01T20:49:52.331Z,40.47
2023-03-01T20:52:24.379Z,43.75
2023-03-01T20:54:57.049Z,41.67
2023-03-01T20:57:29.330Z,43.75
2023-03-01T21:00:02.172Z,45.72
2023-03-01T21:02:34.556Z,44.17
2023-03-01T21:05:08.111Z,46.90
2023-03-01T21:07:40.051Z,42.60
2023-03-01T21:10:12.937Z,46.10
2023-03-01T21:12:45.074Z,42.60
2023-03-01T21:15:28.647Z,44.87
2023-03-01T21:18:02.164Z,42.97
2023-03-01T21:20:34.730Z,43.33
2023-03-01T21:23:06.638Z,43.72
2023-03-01T21:25:39.203Z,47.50
2023-03-01T21:28:11.785Z,49.90
2023-03-01T21:30:44.355Z,44.45
2023-03-01T21:33:16.223Z,42.95
2023-03-01T21:35:49.167Z,42.38
2023-03-01T21:38:21.144Z,46.72
2023-03-01T21:40:53.684Z,42.00
2023-03-01T21:43:26.025Z,43.95
2023-03-01T21:46:03.799Z,42.63
2023-03-01T21:48:35.998Z,45.50
2023-03-01T21:51:09.268Z,50.30
2023-03-01T21:53:41.863Z,46.40
2023-03-01T21:56:24.684Z,41.20
2023-03-01T21:58:58.452Z,47.13
2023-03-01T22:01:30.985Z,43.58
2023-03-01T22:04:03.691Z,42.13
2023-03-01T22:06:40.398Z,38.80
2023-03-01T22:09:23.152Z,42.85
2023-03-01T22:12:02.468Z,38.40
2023-03-01T22:14:35.807Z,42.97
2023-03-01T22:17:07.756Z,41.10
2023-03-01T22:19:40.460Z,40.90
2023-03-01T22:22:12.373Z,42.60
2023-03-01T22:24:45.068Z,39.75
2023-03-01T22:27:17.404Z,43.22
2023-03-01T22:29:50.376Z,43.15
2023-03-01T22:32:22.525Z,41.17
2023-03-01T22:34:55.300Z,50.75
2023-03-01T22:37:27.411Z,41.20
2023-03-01T22:40:00.112Z,41.63
2023-03-01T22:42:32.188Z,42.55
2023-03-01T22:45:05.426Z,42.60
2023-03-01T22:47:40.160Z,45.03
2023-03-01T22:50:13.737Z,43.35
2023-03-01T22:52:45.810Z,43.55
2023-03-01T22:55:19.046Z,44.45
2023-03-01T22:57:52.059Z,45.00
2023-03-01T23:00:25.037Z,42.50
2023-03-01T23:02:57.485Z,48.53
2023-03-01T23:05:30.164Z,43.90
2023-03-01T23:08:02.438Z,45.92
2023-03-01T23:10:34.907Z,42.93
2023-03-01T23:13:06.788Z,41.53
2023-03-01T23:15:45.006Z,42.88
2023-03-01T23:18:17.258Z,45.28
2023-03-01T23:20:49.175Z,43.42
2023-03-01T23:23:22.202Z,43.80
2023-03-01T23:25:56.224Z,43.20
2023-03-01T23:28:29.691Z,42.47
2023-03-01T23:31:05.130Z,54.53
2023-03-01T23:33:40.829Z,41.80
2023-03-01T23:36:18.814Z,46.00
2023-03-01T23:38:55.718Z,43.72
2023-03-01T23:41:30.186Z,42.28
2023-03-01T23:44:05.207Z,44.65
2023-03-01T23:46:37.812Z,41.80
2023-03-01T23:49:16.368Z,44.27
2023-03-01T23:51:48.772Z,42.50
2023-03-01T23:54:24.431Z,44.67
2023-03-01T23:56:56.421Z,45.50
2023-03-01T23:59:28.968Z,44.88
